createdAt,value
2022-12-12T00:02:00.039Z,23.37
2022-12-12T00:06:04.877Z,22.93
2022-12-12T00:10:08.340Z,21.53
2022-12-12T00:14:10.040Z,21.53
2022-12-12T00:18:11.747Z,23.70
2022-12-12T00:22:13.511Z,22.37
2022-12-12T00:26:29.218Z,25.37
2022-12-12T00:30:30.890Z,24.50
2022-12-12T00:34:32.539Z,21.73
2022-12-12T00:38:34.588Z,20.43
2022-12-12T00:42:36.397Z,21.87
2022-12-12T00:46:38.419Z,21.03
2022-12-12T00:50:40.172Z,21.53
2022-12-12T00:54:41.843Z,20.93
2022-12-12T00:58:43.612Z,21.97
2022-12-12T01:02:45.492Z,23.30
2022-12-12T01:06:47.289Z,20.97
2022-12-12T01:10:48.936Z,23.77
2022-12-12T01:14:50.687Z,22.57
2022-12-12T01:18:52.702Z,20.77
2022-12-12T01:22:54.938Z,22.70
2022-12-12T01:26:56.597Z,20.73
2022-12-12T01:30:58.301Z,22.70
2022-12-12T01:35:00.146Z,22.13
2022-12-12T01:39:02.948Z,22.60
2022-12-12T01:43:11.368Z,19.37
2022-12-12T01:47:14.924Z,20.17
2022-12-12T01:51:19.591Z,22.03
2022-12-12T01:55:22.985Z,23.90
2022-12-12T01:59:26.912Z,22.47
2022-12-12T02:03:28.631Z,22.07
2022-12-12T02:07:30.331Z,22.87
2022-12-12T02:11:33.012Z,23.13
2022-12-12T02:16:06.584Z,20.20
2022-12-12T02:20:38.858Z,21.90
2022-12-12T02:24:48.355Z,25.60
2022-12-12T02:28:59.690Z,23.03
2022-12-12T02:33:27.619Z,22.30
2022-12-12T02:37:58.637Z,22.27
2022-12-12T02:42:05.680Z,21.13
2022-12-12T02:46:24.249Z,22.63
2022-12-12T02:50:29.551Z,20.27
2022-12-12T02:54:31.482Z,23.80
2022-12-12T02:58:36.203Z,21.07
2022-12-12T03:02:46.592Z,21.60
2022-12-12T03:07:26.234Z,20.77
2022-12-12T03:11:48.910Z,19.80
2022-12-12T03:16:11.749Z,21.73
2022-12-12T03:20:22.950Z,19.70
2022-12-12T03:24:39.609Z,21.90
2022-12-12T03:28:55.157Z,21.73
2022-12-12T03:33:05.752Z,21.23
2022-12-12T03:37:10.466Z,24.10
2022-12-12T03:41:19.012Z,18.60
2022-12-12T03:45:32.412Z,22.83
2022-12-12T03:49:39.659Z,21.50
2022-12-12T03:53:56.250Z,22.90
2022-12-12T03:58:09.490Z,22.10
2022-12-12T04:02:26.796Z,18.60
2022-12-12T04:06:39.452Z,22.67
2022-12-12T04:11:14.516Z,22.53
2022-12-12T04:15:30.693Z,24.40
2022-12-12T04:20:08.698Z,23.20
2022-12-12T04:24:16.361Z,17.70
2022-12-12T04:28:18.810Z,21.70
2022-12-12T04:32:45.113Z,22.07
2022-12-12T04:36:47.998Z,21.10
2022-12-12T04:40:54.291Z,23.03
2022-12-12T04:45:01.736Z,22.17
2022-12-12T04:49:07.926Z,21.57
2022-12-12T04:53:18.534Z,20.13
2022-12-12T04:57:25.958Z,22.57
2022-12-12T05:01:49.565Z,22.27
2022-12-12T05:05:59.580Z,19.67
2022-12-12T05:10:01.694Z,21.50
2022-12-12T05:14:03.417Z,20.80
2022-12-12T05:18:08.760Z,25.37
2022-12-12T05:22:10.539Z,20.03
2022-12-12T05:26:23.992Z,23.63
2022-12-12T05:30:25.989Z,26.77
2022-12-12T05:34:27.711Z,23.33
2022-12-12T05:38:29.397Z,21.73
2022-12-12T05:42:31.339Z,22.87
2022-12-12T05:46:33.067Z,27.13
2022-12-12T05:50:34.746Z,24.13
2022-12-12T05:54:36.606Z,28.63
2022-12-12T05:58:41.348Z,21.20
2022-12-12T06:02:43.081Z,23.67
2022-12-12T06:06:44.835Z,24.87
2022-12-12T06:10:46.597Z,22.73
2022-12-12T06:14:48.230Z,20.53
2022-12-12T06:18:54.621Z,21.43
2022-12-12T06:22:56.463Z,21.90
2022-12-12T06:26:58.095Z,20.83
2022-12-12T06:30:59.822Z,20.90
2022-12-12T06:35:01.756Z,19.90
2022-12-12T06:39:03.746Z,19.83
2022-12-12T06:43:05.487Z,22.07
2022-12-12T06:47:07.128Z,22.83
2022-12-12T06:51:10.851Z,24.60
2022-12-12T06:55:12.719Z,24.17
2022-12-12T06:59:15.437Z,26.70
2022-12-12T07:03:17.444Z,47.10
2022-12-12T07:07:19.137Z,34.20
2022-12-12T07:11:24.224Z,27.13
2022-12-12T07:15:25.966Z,24.80
2022-12-12T07:19:27.648Z,29.23
2022-12-12T07:23:29.319Z,30.13
2022-12-12T07:27:30.953Z,28.90
2022-12-12T07:31:33.862Z,27.93
2022-12-12T07:35:36.082Z,28.87
2022-12-12T07:39:37.914Z,26.77
2022-12-12T07:43:43.864Z,29.87
2022-12-12T07:47:47.012Z,30.73
2022-12-12T07:51:49.408Z,27.90
2022-12-12T07:55:51.349Z,27.43
2022-12-12T07:59:53.000Z,30.40
2022-12-12T08:03:55.003Z,24.77
2022-12-12T08:07:56.753Z,26.57
2022-12-12T08:11:59.445Z,30.10
2022-12-12T08:16:01.293Z,28.67
2022-12-12T08:20:03.751Z,27.87
2022-12-12T08:24:05.718Z,28.40
2022-12-12T08:28:07.428Z,28.77
2022-12-12T08:32:09.090Z,27.73
2022-12-12T08:36:13.246Z,25.27
2022-12-12T08:40:14.962Z,27.10
2022-12-12T08:44:19.139Z,28.40
2022-12-12T08:48:20.774Z,27.63
2022-12-12T08:52:22.488Z,27.77
2022-12-12T08:56:24.407Z,27.57
2022-12-12T09:00:26.078Z,32.80
2022-12-12T09:04:27.796Z,28.17
2022-12-12T09:08:29.547Z,26.37
2022-12-12T09:12:34.504Z,30.10
2022-12-12T09:16:38.628Z,30.43
2022-12-12T09:20:40.292Z,33.53
2022-12-12T09:24:41.941Z,43.40
2022-12-12T09:28:43.592Z,29.57
2022-12-12T09:32:45.502Z,31.63
2022-12-12T09:36:47.165Z,29.63
2022-12-12T09:40:58.144Z,30.53
2022-12-12T09:45:04.290Z,33.23
2022-12-12T09:49:41.665Z,27.87
2022-12-12T09:53:46.860Z,26.50
2022-12-12T09:57:58.938Z,30.27
2022-12-12T10:02:40.086Z,27.07
2022-12-12T10:06:55.424Z,28.77
2022-12-12T10:11:07.027Z,28.60
2022-12-12T10:15:33.651Z,22.30
2022-12-12T10:19:53.215Z,25.97
2022-12-12T10:24:21.924Z,25.73
2022-12-12T10:28:25.960Z,30.27
2022-12-12T10:32:55.605Z,24.37
2022-12-12T10:37:21.832Z,22.80
2022-12-12T10:41:40.640Z,23.33
2022-12-12T10:46:03.371Z,21.63
2022-12-12T10:50:13.269Z,19.17
2022-12-12T10:54:39.598Z,20.83
2022-12-12T10:58:44.233Z,14.20
2022-12-12T11:02:46.041Z,19.60
2022-12-12T11:06:56.151Z,15.60
2022-12-12T11:11:28.007Z,21.37
2022-12-12T11:15:38.643Z,18.13
2022-12-12T11:19:40.343Z,27.70
2022-12-12T11:23:51.039Z,18.17
2022-12-12T11:27:54.003Z,18.43
2022-12-12T11:31:57.056Z,21.47
2022-12-12T11:36:01.714Z,20.50
2022-12-12T11:40:04.219Z,18.07
2022-12-12T11:44:05.916Z,16.40
2022-12-12T11:48:33.445Z,18.70
2022-12-12T11:52:35.176Z,22.27
2022-12-12T11:56:55.031Z,18.60
2022-12-12T12:01:05.466Z,20.43
2022-12-12T12:05:16.067Z,10.37
2022-12-12T12:09:38.719Z,16.67
2022-12-12T12:14:16.752Z,7.87
2022-12-12T12:18:55.686Z,8.23
2022-12-12T12:23:22.054Z,15.00
2022-12-12T12:27:32.703Z,19.17
2022-12-12T12:31:40.670Z,28.33
2022-12-12T12:36:20.945Z,28.37
2022-12-12T12:40:41.852Z,26.23
2022-12-12T12:45:18.513Z,28.87
2022-12-12T12:49:48.079Z,30.63
2022-12-12T12:54:19.264Z,23.13
2022-12-12T12:58:31.983Z,29.77
2022-12-12T13:02:55.418Z,23.03
2022-12-12T13:07:12.110Z,29.47
2022-12-12T13:11:45.098Z,27.47
2022-12-12T13:15:52.423Z,25.90
2022-12-12T13:19:56.865Z,26.40
2022-12-12T13:24:01.523Z,29.53
2022-12-12T13:28:10.885Z,28.23
2022-12-12T13:32:55.240Z,28.17
2022-12-12T13:36:58.445Z,23.80
2022-12-12T13:41:02.907Z,27.53
2022-12-12T13:45:36.429Z,29.13
2022-12-12T13:50:03.295Z,27.00
2022-12-12T13:54:13.242Z,30.67
2022-12-12T13:58:34.235Z,29.60
2022-12-12T14:02:39.842Z,22.40
2022-12-12T14:06:42.082Z,25.47
2022-12-12T14:10:49.721Z,24.47
2022-12-12T14:15:18.433Z,24.60
2022-12-12T14:19:38.796Z,26.57
2022-12-12T14:23:51.554Z,21.30
2022-12-12T14:27:53.948Z,26.03
2022-12-12T14:32:19.960Z,21.50
2022-12-12T14:36:42.514Z,32.00
2022-12-12T14:40:47.920Z,32.43
2022-12-12T14:44:51.028Z,24.67
2022-12-12T14:49:05.842Z,24.00
2022-12-12T14:53:21.006Z,28.40
2022-12-12T14:57:24.188Z,22.77
2022-12-12T15:01:34.939Z,23.97
2022-12-12T15:05:36.587Z,24.90
2022-12-12T15:09:40.451Z,33.63
2022-12-12T15:13:51.319Z,31.00
2022-12-12T15:17:54.090Z,32.60
2022-12-12T15:21:56.848Z,32.90
2022-12-12T15:25:58.652Z,31.77
2022-12-12T15:30:02.077Z,28.90
2022-12-12T15:34:03.758Z,31.13
2022-12-12T15:38:12.745Z,30.17
2022-12-12T15:42:15.307Z,27.03
2022-12-12T15:46:17.361Z,31.90
2022-12-12T15:50:43.706Z,26.03
2022-12-12T15:54:54.772Z,34.83
2022-12-12T15:59:16.986Z,35.70
2022-12-12T16:03:22.776Z,32.80
2022-12-12T16:07:24.667Z,35.87
2022-12-12T16:11:49.412Z,30.57
2022-12-12T16:15:51.241Z,41.73
2022-12-12T16:20:04.786Z,31.10
2022-12-12T16:24:12.462Z,29.90
2022-12-12T16:28:25.759Z,28.63
2022-12-12T16:32:27.710Z,31.27
2022-12-12T16:36:29.652Z,43.87
2022-12-12T16:40:31.285Z,37.10
2022-12-12T16:44:32.945Z,38.63
2022-12-12T16:48:35.735Z,35.53
2022-12-12T16:52:37.390Z,40.60
2022-12-12T16:56:39.094Z,44.87
2022-12-12T17:00:41.033Z,42.23
2022-12-12T17:04:42.757Z,33.53
2022-12-12T17:08:45.432Z,28.40
2022-12-12T17:12:47.413Z,35.50
2022-12-12T17:16:53.562Z,26.67
2022-12-12T17:20:55.331Z,32.47
2022-12-12T17:24:56.942Z,33.63
2022-12-12T17:28:58.686Z,34.37
2022-12-12T17:33:18.887Z,34.33
2022-12-12T17:37:20.600Z,31.97
2022-12-12T17:41:22.341Z,29.50
2022-12-12T17:45:24.073Z,50.30
2022-12-12T17:49:25.833Z,67.40
2022-12-12T17:53:32.175Z,46.20
2022-12-12T17:57:35.402Z,33.10
2022-12-12T18:01:37.152Z,46.63
2022-12-12T18:05:38.880Z,54.00
2022-12-12T18:09:40.736Z,44.63
2022-12-12T18:13:43.175Z,34.10
2022-12-12T18:17:44.875Z,34.03
2022-12-12T18:22:02.493Z,28.97
2022-12-12T18:26:17.238Z,39.77
2022-12-12T18:30:23.233Z,43.17
2022-12-12T18:34:25.299Z,41.77
2022-12-12T18:38:26.991Z,36.63
2022-12-12T18:42:28.726Z,44.17
2022-12-12T18:46:33.986Z,41.47
2022-12-12T18:50:37.607Z,38.37
2022-12-12T18:54:39.211Z,31.50
2022-12-12T18:58:40.935Z,34.47
2022-12-12T19:02:42.633Z,33.90
2022-12-12T19:06:44.508Z,31.03
2022-12-12T19:10:46.498Z,33.40
2022-12-12T19:19:12.002Z,43.33
2022-12-12T19:23:13.762Z,42.13
2022-12-12T19:27:15.441Z,37.83
2022-12-12T19:31:17.345Z,37.20
2022-12-12T19:35:19.185Z,39.50
2022-12-12T19:39:20.907Z,29.70
2022-12-12T19:43:22.620Z,29.33
2022-12-12T19:47:24.376Z,25.43
2022-12-12T19:51:29.005Z,27.47
2022-12-12T19:55:31.153Z,26.60
2022-12-12T19:59:32.796Z,31.03
2022-12-12T20:03:34.984Z,37.37
2022-12-12T20:07:36.651Z,38.30
2022-12-12T20:11:39.878Z,33.33
2022-12-12T20:15:41.602Z,32.07
2022-12-12T20:19:43.404Z,53.03
2022-12-12T20:23:47.185Z,39.33
2022-12-12T20:27:49.007Z,31.93
2022-12-12T20:31:51.166Z,32.33
2022-12-12T20:35:52.809Z,35.63
2022-12-12T20:39:54.466Z,42.43
2022-12-12T20:43:57.996Z,34.97
2022-12-12T20:48:02.973Z,35.90
2022-12-12T20:52:09.249Z,36.20
2022-12-12T20:56:14.606Z,37.50
2022-12-12T21:00:16.746Z,34.93
2022-12-12T21:04:18.746Z,39.47
2022-12-12T21:08:21.299Z,41.63
2022-12-12T21:12:23.040Z,38.60
2022-12-12T21:16:31.094Z,32.43
2022-12-12T21:20:32.843Z,33.83
2022-12-12T21:24:34.573Z,44.63
2022-12-12T21:28:36.487Z,36.03
2022-12-12T21:32:38.235Z,38.47
2022-12-12T21:36:39.889Z,35.23
2022-12-12T21:40:41.536Z,39.90
2022-12-12T21:44:45.789Z,36.10
2022-12-12T21:49:08.469Z,45.43
2022-12-12T21:53:28.733Z,42.80
2022-12-12T21:57:30.381Z,37.07
2022-12-12T22:01:32.758Z,41.07
2022-12-12T22:05:35.827Z,40.50
2022-12-12T22:09:40.967Z,40.70
2022-12-12T22:13:43.391Z,35.57
2022-12-12T22:17:45.142Z,39.57
2022-12-12T22:21:48.210Z,42.27
2022-12-12T22:25:49.895Z,39.17
2022-12-12T22:29:51.624Z,30.93
2022-12-12T22:33:59.528Z,30.83
2022-12-12T22:38:01.201Z,32.57
2022-12-12T22:42:02.840Z,33.87
2022-12-12T22:46:06.911Z,29.90
2022-12-12T22:50:09.046Z,37.83
2022-12-12T22:54:10.930Z,34.40
2022-12-12T22:58:12.593Z,35.63
2022-12-12T23:02:14.373Z,41.70
2022-12-12T23:06:31.371Z,37.80
2022-12-12T23:10:34.890Z,35.97
2022-12-12T23:14:36.541Z,33.17
2022-12-12T23:18:39.421Z,37.53
2022-12-12T23:22:42.620Z,40.80
2022-12-12T23:26:45.028Z,33.97
2022-12-12T23:30:46.653Z,43.73
2022-12-12T23:34:48.490Z,34.10
2022-12-12T23:38:58.187Z,38.07
2022-12-12T23:42:59.843Z,35.60
2022-12-12T23:47:01.469Z,35.20
2022-12-12T23:51:03.230Z,36.67
2022-12-12T23:55:05.170Z,39.50
2022-12-12T23:59:07.476Z,32.60
